sensor_id;sensor_type;location;lat;lon;timestamp;temperature;humidity
36442;DHT22;64346;50.820;16.274;2023-02-28T00:01:28;-0.50;99.90
36442;DHT22;64346;50.820;16.274;2023-02-28T00:03:56;-0.60;99.90
36442;DHT22;64346;50.820;16.274;2023-02-28T00:06:23;-0.60;99.90
36442;DHT22;64346;50.820;16.274;2023-02-28T00:08:51;-0.60;99.90
36442;DHT22;64346;50.820;16.274;2023-02-28T00:11:22;-0.70;99.90
36442;DHT22;64346;50.820;16.274;2023-02-28T00:13:49;-0.70;99.90
36442;DHT22;64346;50.820;16.274;2023-02-28T00:16:22;-0.80;99.90
36442;DHT22;64346;50.820;16.274;2023-02-28T00:18:52;-0.80;99.90
36442;DHT22;64346;50.820;16.274;2023-02-28T00:21:20;-0.80;99.90
36442;DHT22;64346;50.820;16.274;2023-02-28T00:23:48;-0.70;99.90
36442;DHT22;64346;50.820;16.274;2023-02-28T00:26:18;-0.70;99.90
36442;DHT22;64346;50.820;16.274;2023-02-28T00:28:48;-0.70;99.90
36442;DHT22;64346;50.820;16.274;2023-02-28T00:31:15;-0.70;99.90
36442;DHT22;64346;50.820;16.274;2023-02-28T00:33:42;-0.60;99.90
36442;DHT22;64346;50.820;16.274;2023-02-28T00:36:13;-0.60;99.90
36442;DHT22;64346;50.820;16.274;2023-02-28T00:38:40;-0.60;99.90
36442;DHT22;64346;50.820;16.274;2023-02-28T00:41:08;-0.50;99.90
36442;DHT22;64346;50.820;16.274;2023-02-28T00:43:37;-0.50;99.90
36442;DHT22;64346;50.820;16.274;2023-02-28T00:46:07;-0.50;99.90
36442;DHT22;64346;50.820;16.274;2023-02-28T00:48:39;-0.50;99.90
36442;DHT22;64346;50.820;16.274;2023-02-28T00:51:09;-0.50;99.90
36442;DHT22;64346;50.820;16.274;2023-02-28T00:53:36;-0.50;99.90
36442;DHT22;64346;50.820;16.274;2023-02-28T00:56:08;-0.50;99.90
36442;DHT22;64346;50.820;16.274;2023-02-28T00:58:35;-0.50;99.90
36442;DHT22;64346;50.820;16.274;2023-02-28T01:01:05;-0.50;99.90
36442;DHT22;64346;50.820;16.274;2023-02-28T01:03:35;-0.50;99.90
36442;DHT22;64346;50.820;16.274;2023-02-28T01:06:02;-0.50;99.90
36442;DHT22;64346;50.820;16.274;2023-02-28T01:08:32;-0.60;99.90
36442;DHT22;64346;50.820;16.274;2023-02-28T01:11:10;-0.50;99.90
36442;DHT22;64346;50.820;16.274;2023-02-28T01:13:41;-0.50;99.90
36442;DHT22;64346;50.820;16.274;2023-02-28T01:16:08;-0.50;99.90
36442;DHT22;64346;50.820;16.274;2023-02-28T01:18:36;-0.50;99.90
36442;DHT22;64346;50.820;16.274;2023-02-28T01:21:11;-0.50;99.90
36442;DHT22;64346;50.820;16.274;2023-02-28T01:23:39;-0.40;99.90
36442;DHT22;64346;50.820;16.274;2023-02-28T01:26:21;-0.40;99.90
36442;DHT22;64346;50.820;16.274;2023-02-28T01:28:50;-0.40;99.90
36442;DHT22;64346;50.820;16.274;2023-02-28T01:31:18;-0.40;99.90
36442;DHT22;64346;50.820;16.274;2023-02-28T01:33:46;-1.70;99.90
36442;DHT22;64346;50.820;16.274;2023-02-28T01:36:24;-0.30;99.90
36442;DHT22;64346;50.820;16.274;2023-02-28T01:38:52;-0.40;99.90
36442;DHT22;64346;50.820;16.274;2023-02-28T01:41:26;-0.40;99.90
36442;DHT22;64346;50.820;16.274;2023-02-28T01:46:30;-0.30;99.90
36442;DHT22;64346;50.820;16.274;2023-02-28T01:49:16;-0.30;99.90
36442;DHT22;64346;50.820;16.274;2023-02-28T01:51:48;-0.30;99.90
36442;DHT22;64346;50.820;16.274;2023-02-28T01:54:34;-0.30;99.90
36442;DHT22;64346;50.820;16.274;2023-02-28T01:57:06;-0.30;99.90
36442;DHT22;64346;50.820;16.274;2023-02-28T02:02:21;-0.20;99.90
36442;DHT22;64346;50.820;16.274;2023-02-28T02:05:00;-0.20;99.90
36442;DHT22;64346;50.820;16.274;2023-02-28T02:07:32;-0.30;99.90
36442;DHT22;64346;50.820;16.274;2023-02-28T02:18:19;-0.40;99.90
36442;DHT22;64346;50.820;16.274;2023-02-28T02:27:19;-0.30;99.90
36442;DHT22;64346;50.820;16.274;2023-02-28T02:41:36;-0.20;99.90
36442;DHT22;64346;50.820;16.274;2023-02-28T02:44:34;-0.10;99.90
36442;DHT22;64346;50.820;16.274;2023-02-28T02:47:14;-0.10;99.90
36442;DHT22;64346;50.820;16.274;2023-02-28T02:49:55;-0.10;99.90
36442;DHT22;64346;50.820;16.274;2023-02-28T02:52:31;-0.10;99.90
36442;DHT22;64346;50.820;16.274;2023-02-28T02:55:02;-0.20;99.90
36442;DHT22;64346;50.820;16.274;2023-02-28T02:57:35;-0.30;99.90
36442;DHT22;64346;50.820;16.274;2023-02-28T03:00:07;-0.20;99.90
36442;DHT22;64346;50.820;16.274;2023-02-28T03:02:38;-0.30;99.90
36442;DHT22;64346;50.820;16.274;2023-02-28T03:05:23;-0.30;99.90
36442;DHT22;64346;50.820;16.274;2023-02-28T03:07:54;-0.30;99.90
36442;DHT22;64346;50.820;16.274;2023-02-28T03:10:34;-0.20;99.90
36442;DHT22;64346;50.820;16.274;2023-02-28T03:16:35;-0.30;99.90
36442;DHT22;64346;50.820;16.274;2023-02-28T03:21:58;-0.30;99.90
36442;DHT22;64346;50.820;16.274;2023-02-28T03:27:36;-0.30;99.90
36442;DHT22;64346;50.820;16.274;2023-02-28T03:30:09;1.50;99.90
36442;DHT22;64346;50.820;16.274;2023-02-28T03:32:53;-0.30;99.90
36442;DHT22;64346;50.820;16.274;2023-02-28T03:35:28;-0.30;99.90
36442;DHT22;64346;50.820;16.274;2023-02-28T03:38:06;-0.30;99.90
36442;DHT22;64346;50.820;16.274;2023-02-28T03:40:40;-0.20;99.90
36442;DHT22;64346;50.820;16.274;2023-02-28T03:43:17;-0.20;99.90
36442;DHT22;64346;50.820;16.274;2023-02-28T03:45:45;-0.20;99.90
36442;DHT22;64346;50.820;16.274;2023-02-28T03:48:19;-0.10;99.90
36442;DHT22;64346;50.820;16.274;2023-02-28T03:50:55;-0.20;99.90
36442;DHT22;64346;50.820;16.274;2023-02-28T03:53:29;-0.20;99.90
36442;DHT22;64346;50.820;16.274;2023-02-28T03:56:16;-0.20;99.90
36442;DHT22;64346;50.820;16.274;2023-02-28T03:59:13;-0.20;99.90
36442;DHT22;64346;50.820;16.274;2023-02-28T04:01:45;-0.30;99.90
36442;DHT22;64346;50.820;16.274;2023-02-28T04:04:17;-0.30;99.90
36442;DHT22;64346;50.820;16.274;2023-02-28T04:06:45;-0.30;99.90
36442;DHT22;64346;50.820;16.274;2023-02-28T04:09:14;1.10;99.90
36442;DHT22;64346;50.820;16.274;2023-02-28T04:11:49;-0.30;99.90
36442;DHT22;64346;50.820;16.274;2023-02-28T04:14:19;-0.20;99.90
36442;DHT22;64346;50.820;16.274;2023-02-28T04:16:49;-0.20;99.90
36442;DHT22;64346;50.820;16.274;2023-02-28T04:19:16;-0.20;99.90
36442;DHT22;64346;50.820;16.274;2023-02-28T04:21:47;-0.20;99.90
36442;DHT22;64346;50.820;16.274;2023-02-28T04:24:26;-0.20;99.90
36442;DHT22;64346;50.820;16.274;2023-02-28T04:26:57;-0.30;99.90
36442;DHT22;64346;50.820;16.274;2023-02-28T04:29:30;-0.30;99.90
36442;DHT22;64346;50.820;16.274;2023-02-28T04:32:01;-0.20;99.90
36442;DHT22;64346;50.820;16.274;2023-02-28T04:34:30;-0.20;99.90
36442;DHT22;64346;50.820;16.274;2023-02-28T04:37:01;-0.10;99.90
36442;DHT22;64346;50.820;16.274;2023-02-28T04:39:46;-0.20;99.90
36442;DHT22;64346;50.820;16.274;2023-02-28T04:42:15;-0.20;99.90
36442;DHT22;64346;50.820;16.274;2023-02-28T04:44:42;-0.20;99.90
36442;DHT22;64346;50.820;16.274;2023-02-28T04:47:12;-0.20;99.90
36442;DHT22;64346;50.820;16.274;2023-02-28T04:49:39;-0.20;99.90
36442;DHT22;64346;50.820;16.274;2023-02-28T04:52:09;-0.20;99.90
36442;DHT22;64346;50.820;16.274;2023-02-28T04:54:36;-0.30;99.90
36442;DHT22;64346;50.820;16.274;2023-02-28T04:57:04;-0.30;99.90
36442;DHT22;64346;50.820;16.274;2023-02-28T04:59:33;-0.40;99.90
36442;DHT22;64346;50.820;16.274;2023-02-28T05:02:00;-0.40;99.90
36442;DHT22;64346;50.820;16.274;2023-02-28T05:04:28;-0.40;99.90
36442;DHT22;64346;50.820;16.274;2023-02-28T05:06:55;-0.40;99.90
36442;DHT22;64346;50.820;16.274;2023-02-28T05:09:22;-0.50;99.90
36442;DHT22;64346;50.820;16.274;2023-02-28T05:11:49;-0.50;99.90
36442;DHT22;64346;50.820;16.274;2023-02-28T05:14:22;-0.60;99.90
36442;DHT22;64346;50.820;16.274;2023-02-28T05:16:49;-0.60;99.90
36442;DHT22;64346;50.820;16.274;2023-02-28T05:19:19;-0.80;99.90
36442;DHT22;64346;50.820;16.274;2023-02-28T05:21:52;-0.80;99.90
36442;DHT22;64346;50.820;16.274;2023-02-28T05:24:20;-0.80;99.90
36442;DHT22;64346;50.820;16.274;2023-02-28T05:26:48;-0.80;99.90
36442;DHT22;64346;50.820;16.274;2023-02-28T05:29:16;-0.90;99.90
36442;DHT22;64346;50.820;16.274;2023-02-28T05:31:47;-0.80;99.90
36442;DHT22;64346;50.820;16.274;2023-02-28T05:34:15;-0.90;99.90
36442;DHT22;64346;50.820;16.274;2023-02-28T05:36:43;-0.20;99.90
36442;DHT22;64346;50.820;16.274;2023-02-28T05:39:13;-1.00;99.90
36442;DHT22;64346;50.820;16.274;2023-02-28T05:41:43;-1.00;99.90
36442;DHT22;64346;50.820;16.274;2023-02-28T05:44:11;-1.00;99.90
36442;DHT22;64346;50.820;16.274;2023-02-28T05:46:40;-1.00;99.90
36442;DHT22;64346;50.820;16.274;2023-02-28T05:49:08;0.20;99.90
36442;DHT22;64346;50.820;16.274;2023-02-28T05:51:37;-1.00;99.90
36442;DHT22;64346;50.820;16.274;2023-02-28T05:54:05;-1.00;99.90
36442;DHT22;64346;50.820;16.274;2023-02-28T05:56:33;-0.90;99.90
36442;DHT22;64346;50.820;16.274;2023-02-28T05:59:00;-1.00;99.90
36442;DHT22;64346;50.820;16.274;2023-02-28T06:04:05;-0.80;99.90
36442;DHT22;64346;50.820;16.274;2023-02-28T06:06:33;-0.70;99.90
36442;DHT22;64346;50.820;16.274;2023-02-28T06:09:06;-0.40;99.90
36442;DHT22;64346;50.820;16.274;2023-02-28T06:11:33;0.20;99.90
36442;DHT22;64346;50.820;16.274;2023-02-28T06:14:02;0.80;99.90
36442;DHT22;64346;50.820;16.274;2023-02-28T06:16:33;1.20;99.90
36442;DHT22;64346;50.820;16.274;2023-02-28T06:19:06;1.40;99.90
36442;DHT22;64346;50.820;16.274;2023-02-28T06:21:33;1.50;99.90
36442;DHT22;64346;50.820;16.274;2023-02-28T06:24:01;1.70;99.90
36442;DHT22;64346;50.820;16.274;2023-02-28T06:26:28;1.80;99.90
36442;DHT22;64346;50.820;16.274;2023-02-28T06:28:55;1.90;99.90
36442;DHT22;64346;50.820;16.274;2023-02-28T06:31:23;1.90;99.90
36442;DHT22;64346;50.820;16.274;2023-02-28T06:33:50;2.10;99.90
36442;DHT22;64346;50.820;16.274;2023-02-28T06:36:18;2.50;99.90
36442;DHT22;64346;50.820;16.274;2023-02-28T06:38:47;2.90;99.90
36442;DHT22;64346;50.820;16.274;2023-02-28T06:41:15;3.20;99.90
36442;DHT22;64346;50.820;16.274;2023-02-28T06:43:42;3.90;99.90
36442;DHT22;64346;50.820;16.274;2023-02-28T06:46:12;4.70;99.90
36442;DHT22;64346;50.820;16.274;2023-02-28T06:48:43;5.00;99.90
36442;DHT22;64346;50.820;16.274;2023-02-28T06:51:13;5.10;99.90
36442;DHT22;64346;50.820;16.274;2023-02-28T06:53:42;5.10;99.90
36442;DHT22;64346;50.820;16.274;2023-02-28T06:56:11;5.20;99.90
36442;DHT22;64346;50.820;16.274;2023-02-28T06:58:45;5.50;99.90
36442;DHT22;64346;50.820;16.274;2023-02-28T07:01:13;6.70;99.90
36442;DHT22;64346;50.820;16.274;2023-02-28T07:03:41;8.90;97.70
36442;DHT22;64346;50.820;16.274;2023-02-28T07:06:08;11.40;92.60
36442;DHT22;64346;50.820;16.274;2023-02-28T07:08:38;13.10;84.60
36442;DHT22;64346;50.820;16.274;2023-02-28T07:11:06;15.40;74.40
36442;DHT22;64346;50.820;16.274;2023-02-28T07:13:36;17.50;64.20
36442;DHT22;64346;50.820;16.274;2023-02-28T07:16:05;18.90;55.90
36442;DHT22;64346;50.820;16.274;2023-02-28T07:18:36;20.40;51.70
36442;DHT22;64346;50.820;16.274;2023-02-28T07:21:10;21.80;48.80
36442;DHT22;64346;50.820;16.274;2023-02-28T07:23:38;22.80;45.90
36442;DHT22;64346;50.820;16.274;2023-02-28T07:26:10;23.10;44.90
36442;DHT22;64346;50.820;16.274;2023-02-28T07:28:38;23.40;43.40
36442;DHT22;64346;50.820;16.274;2023-02-28T07:31:06;23.90;41.70
36442;DHT22;64346;50.820;16.274;2023-02-28T07:33:37;24.60;40.40
36442;DHT22;64346;50.820;16.274;2023-02-28T07:36:07;26.00;39.80
36442;DHT22;64346;50.820;16.274;2023-02-28T07:38:36;24.80;39.20
36442;DHT22;64346;50.820;16.274;2023-02-28T07:41:04;24.40;38.80
36442;DHT22;64346;50.820;16.274;2023-02-28T07:43:32;24.80;37.70
36442;DHT22;64346;50.820;16.274;2023-02-28T07:46:10;25.50;37.40
36442;DHT22;64346;50.820;16.274;2023-02-28T07:48:38;25.20;36.20
36442;DHT22;64346;50.820;16.274;2023-02-28T07:51:08;25.10;36.20
36442;DHT22;64346;50.820;16.274;2023-02-28T07:53:35;25.30;35.60
36442;DHT22;64346;50.820;16.274;2023-02-28T07:56:03;25.50;35.00
36442;DHT22;64346;50.820;16.274;2023-02-28T07:58:33;23.60;35.20
36442;DHT22;64346;50.820;16.274;2023-02-28T08:01:08;22.30;36.50
36442;DHT22;64346;50.820;16.274;2023-02-28T08:03:39;21.30;36.50
36442;DHT22;64346;50.820;16.274;2023-02-28T08:06:08;19.70;38.20
36442;DHT22;64346;50.820;16.274;2023-02-28T08:08:42;19.20;38.80
36442;DHT22;64346;50.820;16.274;2023-02-28T08:11:11;18.90;39.00
36442;DHT22;64346;50.820;16.274;2023-02-28T08:13:41;18.40;39.60
36442;DHT22;64346;50.820;16.274;2023-02-28T08:16:09;16.90;40.00
36442;DHT22;64346;50.820;16.274;2023-02-28T08:18:37;15.20;41.90
36442;DHT22;64346;50.820;16.274;2023-02-28T08:21:08;14.80;42.60
36442;DHT22;64346;50.820;16.274;2023-02-28T08:23:36;15.60;42.80
36442;DHT22;64346;50.820;16.274;2023-02-28T08:26:03;16.80;41.60
36442;DHT22;64346;50.820;16.274;2023-02-28T08:28:33;18.80;39.60
36442;DHT22;64346;50.820;16.274;2023-02-28T08:31:01;19.50;38.00
36442;DHT22;64346;50.820;16.274;2023-02-28T08:33:28;20.30;37.80
36442;DHT22;64346;50.820;16.274;2023-02-28T08:35:56;18.90;38.20
36442;DHT22;64346;50.820;16.274;2023-02-28T08:38:24;19.90;38.70
36442;DHT22;64346;50.820;16.274;2023-02-28T08:41:02;21.20;37.50
36442;DHT22;64346;50.820;16.274;2023-02-28T08:43:32;22.30;36.60
36442;DHT22;64346;50.820;16.274;2023-02-28T08:46:00;24.20;35.30
36442;DHT22;64346;50.820;16.274;2023-02-28T08:48:29;24.90;34.40
36442;DHT22;64346;50.820;16.274;2023-02-28T08:50:58;24.80;34.10
36442;DHT22;64346;50.820;16.274;2023-02-28T08:53:39;25.20;34.30
36442;DHT22;64346;50.820;16.274;2023-02-28T08:56:09;26.20;33.50
36442;DHT22;64346;50.820;16.274;2023-02-28T08:58:39;27.00;33.40
36442;DHT22;64346;50.820;16.274;2023-02-28T09:01:10;27.90;32.80
36442;DHT22;64346;50.820;16.274;2023-02-28T09:03:38;28.20;32.20
36442;DHT22;64346;50.820;16.274;2023-02-28T09:06:06;28.80;32.60
36442;DHT22;64346;50.820;16.274;2023-02-28T09:08:36;28.90;32.10
36442;DHT22;64346;50.820;16.274;2023-02-28T09:11:05;29.10;32.20
36442;DHT22;64346;50.820;16.274;2023-02-28T09:13:33;29.70;31.90
36442;DHT22;64346;50.820;16.274;2023-02-28T09:16:01;29.20;31.60
36442;DHT22;64346;50.820;16.274;2023-02-28T09:18:33;29.80;31.80
36442;DHT22;64346;50.820;16.274;2023-02-28T09:21:06;29.90;31.80
36442;DHT22;64346;50.820;16.274;2023-02-28T09:23:34;30.30;31.80
36442;DHT22;64346;50.820;16.274;2023-02-28T09:26:05;30.80;31.80
36442;DHT22;64346;50.820;16.274;2023-02-28T09:28:32;30.50;31.70
36442;DHT22;64346;50.820;16.274;2023-02-28T09:31:01;30.90;31.70
36442;DHT22;64346;50.820;16.274;2023-02-28T09:33:29;31.00;30.80
36442;DHT22;64346;50.820;16.274;2023-02-28T09:36:02;31.20;31.30
36442;DHT22;64346;50.820;16.274;2023-02-28T09:38:32;30.10;30.30
36442;DHT22;64346;50.820;16.274;2023-02-28T09:41:10;29.20;31.00
36442;DHT22;64346;50.820;16.274;2023-02-28T09:43:45;30.00;31.00
36442;DHT22;64346;50.820;16.274;2023-02-28T09:46:42;30.30;30.90
36442;DHT22;64346;50.820;16.274;2023-02-28T09:49:19;30.50;30.50
36442;DHT22;64346;50.820;16.274;2023-02-28T09:52:14;31.10;30.40
36442;DHT22;64346;50.820;16.274;2023-02-28T09:54:46;30.70;30.20
36442;DHT22;64346;50.820;16.274;2023-02-28T09:57:37;30.50;30.10
36442;DHT22;64346;50.820;16.274;2023-02-28T10:03:02;30.70;30.20
36442;DHT22;64346;50.820;16.274;2023-02-28T10:08:11;32.40;30.30
36442;DHT22;64346;50.820;16.274;2023-02-28T10:10:42;32.70;30.00
36442;DHT22;64346;50.820;16.274;2023-02-28T10:13:34;32.20;29.90
36442;DHT22;64346;50.820;16.274;2023-02-28T10:16:14;31.90;29.70
36442;DHT22;64346;50.820;16.274;2023-02-28T10:19:03;31.40;29.70
36442;DHT22;64346;50.820;16.274;2023-02-28T10:21:40;30.90;29.90
36442;DHT22;64346;50.820;16.274;2023-02-28T10:24:15;31.10;30.20
36442;DHT22;64346;50.820;16.274;2023-02-28T10:26:48;30.90;29.90
36442;DHT22;64346;50.820;16.274;2023-02-28T10:29:15;30.40;29.70
36442;DHT22;64346;50.820;16.274;2023-02-28T10:31:43;30.40;30.10
36442;DHT22;64346;50.820;16.274;2023-02-28T10:34:13;30.70;30.20
36442;DHT22;64346;50.820;16.274;2023-02-28T10:36:43;30.60;30.30
36442;DHT22;64346;50.820;16.274;2023-02-28T10:39:40;30.40;30.00
36442;DHT22;64346;50.820;16.274;2023-02-28T10:42:28;30.30;30.70
36442;DHT22;64346;50.820;16.274;2023-02-28T10:45:15;30.80;30.00
36442;DHT22;64346;50.820;16.274;2023-02-28T10:48:00;30.70;29.80
36442;DHT22;64346;50.820;16.274;2023-02-28T10:53:28;29.80;30.50
36442;DHT22;64346;50.820;16.274;2023-02-28T11:01:44;29.10;30.40
36442;DHT22;64346;50.820;16.274;2023-02-28T11:04:19;28.90;30.50
36442;DHT22;64346;50.820;16.274;2023-02-28T11:06:48;28.90;30.60
36442;DHT22;64346;50.820;16.274;2023-02-28T11:09:44;29.00;30.60
36442;DHT22;64346;50.820;16.274;2023-02-28T11:15:04;29.40;30.90
36442;DHT22;64346;50.820;16.274;2023-02-28T11:17:33;29.30;30.70
36442;DHT22;64346;50.820;16.274;2023-02-28T11:20:17;28.80;31.10
36442;DHT22;64346;50.820;16.274;2023-02-28T11:22:46;28.30;30.50
36442;DHT22;64346;50.820;16.274;2023-02-28T11:25:26;28.40;30.50
36442;DHT22;64346;50.820;16.274;2023-02-28T11:27:58;28.50;30.90
36442;DHT22;64346;50.820;16.274;2023-02-28T11:30:49;28.60;31.10
36442;DHT22;64346;50.820;16.274;2023-02-28T11:38:48;28.10;31.50
36442;DHT22;64346;50.820;16.274;2023-02-28T11:44:04;27.50;31.00
36442;DHT22;64346;50.820;16.274;2023-02-28T11:46:51;24.90;32.30
36442;DHT22;64346;50.820;16.274;2023-02-28T12:08:59;10.50;48.70
36442;DHT22;64346;50.820;16.274;2023-02-28T12:19:39;7.60;54.50
36442;DHT22;64346;50.820;16.274;2023-02-28T12:22:31;7.20;56.30
36442;DHT22;64346;50.820;16.274;2023-02-28T12:25:20;6.80;59.50
36442;DHT22;64346;50.820;16.274;2023-02-28T12:27:49;6.60;58.90
36442;DHT22;64346;50.820;16.274;2023-02-28T12:30:24;6.50;59.80
36442;DHT22;64346;50.820;16.274;2023-02-28T12:33:14;6.40;59.70
36442;DHT22;64346;50.820;16.274;2023-02-28T12:35:58;6.20;59.40
36442;DHT22;64346;50.820;16.274;2023-02-28T12:39:16;6.00;60.80
36442;DHT22;64346;50.820;16.274;2023-02-28T12:41:26;6.00;61.20
36442;DHT22;64346;50.820;16.274;2023-02-28T12:44:27;5.90;60.80
36442;DHT22;64346;50.820;16.274;2023-02-28T12:46:59;5.90;61.40
36442;DHT22;64346;50.820;16.274;2023-02-28T12:49:33;5.90;61.10
36442;DHT22;64346;50.820;16.274;2023-02-28T12:52:06;5.90;62.60
36442;DHT22;64346;50.820;16.274;2023-02-28T12:57:15;6.00;63.60
36442;DHT22;64346;50.820;16.274;2023-02-28T12:59:59;6.10;62.90
36442;DHT22;64346;50.820;16.274;2023-02-28T13:11:01;5.40;63.60
36442;DHT22;64346;50.820;16.274;2023-02-28T13:13:33;5.40;63.60
36442;DHT22;64346;50.820;16.274;2023-02-28T13:16:08;5.30;64.80
36442;DHT22;64346;50.820;16.274;2023-02-28T13:18:42;5.40;64.60
36442;DHT22;64346;50.820;16.274;2023-02-28T13:21:29;5.40;65.50
36442;DHT22;64346;50.820;16.274;2023-02-28T13:24:03;5.40;64.90
36442;DHT22;64346;50.820;16.274;2023-02-28T13:31:31;5.30;64.50
36442;DHT22;64346;50.820;16.274;2023-02-28T13:34:05;5.20;65.70
36442;DHT22;64346;50.820;16.274;2023-02-28T13:36:32;5.10;65.80
36442;DHT22;64346;50.820;16.274;2023-02-28T13:39:44;5.20;67.20
36442;DHT22;64346;50.820;16.274;2023-02-28T13:41:48;5.20;65.90
36442;DHT22;64346;50.820;16.274;2023-02-28T13:44:22;5.10;66.00
36442;DHT22;64346;50.820;16.274;2023-02-28T13:49:27;5.00;66.70
36442;DHT22;64346;50.820;16.274;2023-02-28T14:05:24;4.60;68.20
36442;DHT22;64346;50.820;16.274;2023-02-28T14:08:20;4.60;69.40
36442;DHT22;64346;50.820;16.274;2023-02-28T14:11:04;4.60;68.60
36442;DHT22;64346;50.820;16.274;2023-02-28T14:16:08;4.40;69.00
36442;DHT22;64346;50.820;16.274;2023-02-28T14:18:38;4.40;70.40
36442;DHT22;64346;50.820;16.274;2023-02-28T14:29:26;4.40;69.30
36442;DHT22;64346;50.820;16.274;2023-02-28T14:37:19;4.10;69.70
36442;DHT22;64346;50.820;16.274;2023-02-28T14:39:47;4.20;70.30
36442;DHT22;64346;50.820;16.274;2023-02-28T14:42:35;4.20;70.80
36442;DHT22;64346;50.820;16.274;2023-02-28T14:45:03;4.10;69.90
36442;DHT22;64346;50.820;16.274;2023-02-28T14:47:32;4.10;70.60
36442;DHT22;64346;50.820;16.274;2023-02-28T14:50:07;4.00;70.60
36442;DHT22;64346;50.820;16.274;2023-02-28T14:52:34;3.90;70.40
36442;DHT22;64346;50.820;16.274;2023-02-28T14:55:10;3.90;71.10
36442;DHT22;64346;50.820;16.274;2023-02-28T14:58:03;3.90;71.00
36442;DHT22;64346;50.820;16.274;2023-02-28T15:00:35;3.80;71.00
36442;DHT22;64346;50.820;16.274;2023-02-28T15:03:21;3.90;71.60
36442;DHT22;64346;50.820;16.274;2023-02-28T15:05:57;3.80;72.30
36442;DHT22;64346;50.820;16.274;2023-02-28T15:08:25;3.80;72.30
36442;DHT22;64346;50.820;16.274;2023-02-28T15:13:48;3.70;74.10
36442;DHT22;64346;50.820;16.274;2023-02-28T15:16:17;3.80;74.80
36442;DHT22;64346;50.820;16.274;2023-02-28T15:18:55;3.80;75.00
36442;DHT22;64346;50.820;16.274;2023-02-28T15:21:34;3.80;75.30
36442;DHT22;64346;50.820;16.274;2023-02-28T15:24:28;3.80;75.80
36442;DHT22;64346;50.820;16.274;2023-02-28T15:27:04;3.80;76.30
36442;DHT22;64346;50.820;16.274;2023-02-28T15:29:44;3.90;76.10
36442;DHT22;64346;50.820;16.274;2023-02-28T15:32:38;3.80;76.20
36442;DHT22;64346;50.820;16.274;2023-02-28T15:38:21;3.70;77.40
36442;DHT22;64346;50.820;16.274;2023-02-28T15:40:53;3.70;77.70
36442;DHT22;64346;50.820;16.274;2023-02-28T15:43:27;3.60;78.20
36442;DHT22;64346;50.820;16.274;2023-02-28T15:46:02;3.50;78.40
36442;DHT22;64346;50.820;16.274;2023-02-28T15:48:31;3.50;78.90
36442;DHT22;64346;50.820;16.274;2023-02-28T15:58:49;3.40;80.30
36442;DHT22;64346;50.820;16.274;2023-02-28T16:01:23;3.30;81.20
36442;DHT22;64346;50.820;16.274;2023-02-28T16:03:56;3.30;81.50
36442;DHT22;64346;50.820;16.274;2023-02-28T16:09:15;3.20;82.70
36442;DHT22;64346;50.820;16.274;2023-02-28T16:11:48;3.20;82.80
36442;DHT22;64346;50.820;16.274;2023-02-28T16:14:19;3.20;84.00
36442;DHT22;64346;50.820;16.274;2023-02-28T16:16:50;3.20;83.30
36442;DHT22;64346;50.820;16.274;2023-02-28T16:19:18;3.20;84.10
36442;DHT22;64346;50.820;16.274;2023-02-28T16:21:46;3.10;84.60
36442;DHT22;64346;50.820;16.274;2023-02-28T16:24:13;3.10;84.40
36442;DHT22;64346;50.820;16.274;2023-02-28T16:26:44;3.00;84.30
36442;DHT22;64346;50.820;16.274;2023-02-28T16:29:24;2.90;85.20
36442;DHT22;64346;50.820;16.274;2023-02-28T16:31:56;2.90;85.80
36442;DHT22;64346;50.820;16.274;2023-02-28T16:34:24;2.90;86.60
36442;DHT22;64346;50.820;16.274;2023-02-28T16:36:52;2.80;86.90
36442;DHT22;64346;50.820;16.274;2023-02-28T16:39:20;2.80;87.70
36442;DHT22;64346;50.820;16.274;2023-02-28T16:41:50;1.70;88.10
36442;DHT22;64346;50.820;16.274;2023-02-28T16:44:30;2.70;89.20
36442;DHT22;64346;50.820;16.274;2023-02-28T16:47:03;2.60;89.70
36442;DHT22;64346;50.820;16.274;2023-02-28T16:49:33;2.50;90.10
36442;DHT22;64346;50.820;16.274;2023-02-28T16:52:03;2.50;90.50
36442;DHT22;64346;50.820;16.274;2023-02-28T16:54:30;2.50;90.80
36442;DHT22;64346;50.820;16.274;2023-02-28T16:56:57;2.40;91.00
36442;DHT22;64346;50.820;16.274;2023-02-28T16:59:26;2.40;91.40
36442;DHT22;64346;50.820;16.274;2023-02-28T17:01:55;2.40;91.60
36442;DHT22;64346;50.820;16.274;2023-02-28T17:04:23;2.40;92.00
36442;DHT22;64346;50.820;16.274;2023-02-28T17:06:53;2.40;92.50
36442;DHT22;64346;50.820;16.274;2023-02-28T17:12:34;2.30;93.80
36442;DHT22;64346;50.820;16.274;2023-02-28T17:15:01;2.30;93.60
36442;DHT22;64346;50.820;16.274;2023-02-28T17:17:32;2.30;93.60
36442;DHT22;64346;50.820;16.274;2023-02-28T17:22:45;2.30;94.70
36442;DHT22;64346;50.820;16.274;2023-02-28T17:25:15;2.30;95.30
36442;DHT22;64346;50.820;16.274;2023-02-28T17:27:45;2.20;95.90
36442;DHT22;64346;50.820;16.274;2023-02-28T17:30:17;2.20;96.60
36442;DHT22;64346;50.820;16.274;2023-02-28T17:32:44;2.20;97.20
36442;DHT22;64346;50.820;16.274;2023-02-28T17:35:12;2.20;97.70
36442;DHT22;64346;50.820;16.274;2023-02-28T17:37:41;2.20;98.00
36442;DHT22;64346;50.820;16.274;2023-02-28T17:40:14;2.20;98.50
36442;DHT22;64346;50.820;16.274;2023-02-28T17:42:42;2.10;99.50
36442;DHT22;64346;50.820;16.274;2023-02-28T17:45:11;2.10;99.90
36442;DHT22;64346;50.820;16.274;2023-02-28T17:47:42;2.10;99.90
36442;DHT22;64346;50.820;16.274;2023-02-28T17:50:16;2.00;99.90
36442;DHT22;64346;50.820;16.274;2023-02-28T17:52:49;2.00;99.90
36442;DHT22;64346;50.820;16.274;2023-02-28T17:55:16;2.00;99.90
36442;DHT22;64346;50.820;16.274;2023-02-28T17:57:44;2.00;99.90
36442;DHT22;64346;50.820;16.274;2023-02-28T18:00:13;1.90;99.90
36442;DHT22;64346;50.820;16.274;2023-02-28T18:02:43;3.70;99.90
36442;DHT22;64346;50.820;16.274;2023-02-28T18:05:11;1.80;99.90
36442;DHT22;64346;50.820;16.274;2023-02-28T18:07:41;1.80;99.90
36442;DHT22;64346;50.820;16.274;2023-02-28T18:10:18;1.90;99.90
36442;DHT22;64346;50.820;16.274;2023-02-28T18:12:50;1.80;99.90
36442;DHT22;64346;50.820;16.274;2023-02-28T18:15:21;1.80;99.90
36442;DHT22;64346;50.820;16.274;2023-02-28T18:17:49;1.70;99.90
36442;DHT22;64346;50.820;16.274;2023-02-28T18:20:23;1.70;99.90
36442;DHT22;64346;50.820;16.274;2023-02-28T18:22:50;1.60;99.90
36442;DHT22;64346;50.820;16.274;2023-02-28T18:25:17;1.70;99.90
36442;DHT22;64346;50.820;16.274;2023-02-28T18:27:45;1.70;99.90
36442;DHT22;64346;50.820;16.274;2023-02-28T18:30:14;1.70;99.90
36442;DHT22;64346;50.820;16.274;2023-02-28T18:32:42;1.70;99.90
36442;DHT22;64346;50.820;16.274;2023-02-28T18:35:09;1.50;99.90
36442;DHT22;64346;50.820;16.274;2023-02-28T18:37:39;1.40;99.90
36442;DHT22;64346;50.820;16.274;2023-02-28T18:40:09;1.30;99.90
36442;DHT22;64346;50.820;16.274;2023-02-28T18:42:38;1.20;99.90